sensor_id;sensor_type;location;lat;lon;timestamp;pressure;altitude;pressure_sealevel;temperature;humidity
13734;BME280;43298;52.560;13.508;2023-12-20T00:01:49;98767.41;;;7.21;100.00
13734;BME280;43298;52.560;13.508;2023-12-20T00:04:15;98765.69;;;7.22;100.00
13734;BME280;43298;52.560;13.508;2023-12-20T00:06:45;98760.44;;;7.23;100.00
13734;BME280;43298;52.560;13.508;2023-12-20T00:09:11;98759.69;;;7.21;100.00
13734;BME280;43298;52.560;13.508;2023-12-20T00:11:37;98758.16;;;7.19;100.00
13734;BME280;43298;52.560;13.508;2023-12-20T00:14:03;98757.31;;;7.18;100.00
13734;BME280;43298;52.560;13.508;2023-12-20T00:16:28;98746.09;;;7.19;100.00
13734;BME280;43298;52.560;13.508;2023-12-20T00:18:54;98754.66;;;7.20;100.00
13734;BME280;43298;52.560;13.508;2023-12-20T00:21:20;98742.63;;;7.20;100.00
13734;BME280;43298;52.560;13.508;2023-12-20T00:23:46;98743.53;;;7.19;100.00
13734;BME280;43298;52.560;13.508;2023-12-20T00:26:11;98746.09;;;7.19;100.00
13734;BME280;43298;52.560;13.508;2023-12-20T00:28:37;98744.38;;;7.20;100.00
13734;BME280;43298;52.560;13.508;2023-12-20T00:31:03;98741.63;;;7.23;100.00
13734;BME280;43298;52.560;13.508;2023-12-20T00:33:30;98741.09;;;7.18;100.00
13734;BME280;43298;52.560;13.508;2023-12-20T00:35:55;98740.06;;;7.20;100.00
13734;BME280;43298;52.560;13.508;2023-12-20T00:38:21;98745.28;;;7.19;100.00
13734;BME280;43298;52.560;13.508;2023-12-20T00:40:48;98735.94;;;7.18;100.00
13734;BME280;43298;52.560;13.508;2023-12-20T00:43:15;98735.00;;;7.19;100.00
13734;BME280;43298;52.560;13.508;2023-12-20T00:45:41;98744.28;;;7.21;100.00
13734;BME280;43298;52.560;13.508;2023-12-20T00:48:07;98742.63;;;7.20;100.00
13734;BME280;43298;52.560;13.508;2023-12-20T00:50:33;98735.00;;;7.19;100.00
13734;BME280;43298;52.560;13.508;2023-12-20T00:52:58;98739.13;;;7.21;100.00
13734;BME280;43298;52.560;13.508;2023-12-20T00:55:24;98740.06;;;7.20;100.00
13734;BME280;43298;52.560;13.508;2023-12-20T00:57:50;98732.25;;;7.22;100.00
13734;BME280;43298;52.560;13.508;2023-12-20T01:00:16;98741.72;;;7.21;100.00
13734;BME280;43298;52.560;13.508;2023-12-20T01:02:42;98735.63;;;7.22;100.00
13734;BME280;43298;52.560;13.508;2023-12-20T01:05:08;98745.03;;;7.23;100.00
13734;BME280;43298;52.560;13.508;2023-12-20T01:07:35;98747.59;;;7.23;100.00
13734;BME280;43298;52.560;13.508;2023-12-20T01:10:01;98747.59;;;7.23;100.00
13734;BME280;43298;52.560;13.508;2023-12-20T01:12:26;98747.59;;;7.23;100.00
13734;BME280;43298;52.560;13.508;2023-12-20T01:14:52;98741.72;;;7.21;100.00
13734;BME280;43298;52.560;13.508;2023-12-20T01:17:18;98752.53;;;7.26;100.00
13734;BME280;43298;52.560;13.508;2023-12-20T01:19:44;98760.16;;;7.28;100.00
13734;BME280;43298;52.560;13.508;2023-12-20T01:22:09;98749.78;;;7.29;100.00
13734;BME280;43298;52.560;13.508;2023-12-20T01:24:35;98748.03;;;7.30;100.00
13734;BME280;43298;52.560;13.508;2023-12-20T01:27:01;98750.03;;;7.25;100.00
13734;BME280;43298;52.560;13.508;2023-12-20T01:29:27;98738.78;;;7.27;100.00
13734;BME280;43298;52.560;13.508;2023-12-20T01:31:53;98747.38;;;7.26;100.00
13734;BME280;43298;52.560;13.508;2023-12-20T01:34:19;98748.22;;;7.27;100.00
13734;BME280;43298;52.560;13.508;2023-12-20T01:36:45;98743.91;;;7.27;100.00
13734;BME280;43298;52.560;13.508;2023-12-20T01:39:10;98739.88;;;7.23;100.00
13734;BME280;43298;52.560;13.508;2023-12-20T01:41:36;98745.66;;;7.27;100.00
13734;BME280;43298;52.560;13.508;2023-12-20T01:44:02;98745.84;;;7.24;100.00
13734;BME280;43298;52.560;13.508;2023-12-20T01:46:28;98742.53;;;7.22;100.00
13734;BME280;43298;52.560;13.508;2023-12-20T01:48:53;98751.06;;;7.22;100.00
13734;BME280;43298;52.560;13.508;2023-12-20T01:51:20;98750.03;;;7.25;100.00
13734;BME280;43298;52.560;13.508;2023-12-20T01:53:47;98740.78;;;7.22;100.00
13734;BME280;43298;52.560;13.508;2023-12-20T01:56:13;98739.13;;;7.21;100.00
13734;BME280;43298;52.560;13.508;2023-12-20T01:58:46;98744.28;;;7.21;100.00
13734;BME280;43298;52.560;13.508;2023-12-20T02:01:13;98735.94;;;7.18;100.00
13734;BME280;43298;52.560;13.508;2023-12-20T02:03:41;98736.03;;;7.16;100.00
13734;BME280;43298;52.560;13.508;2023-12-20T02:06:08;98741.97;;;7.17;100.00
13734;BME280;43298;52.560;13.508;2023-12-20T02:08:35;98745.38;;;7.17;100.00
13734;BME280;43298;52.560;13.508;2023-12-20T02:11:01;98736.75;;;7.18;100.00
13734;BME280;43298;52.560;13.508;2023-12-20T02:13:27;98734.44;;;7.14;100.00
13734;BME280;43298;52.560;13.508;2023-12-20T02:15:54;98724.38;;;7.11;100.00
13734;BME280;43298;52.560;13.508;2023-12-20T02:18:21;98738.97;;;7.10;100.00
13734;BME280;43298;52.560;13.508;2023-12-20T02:20:47;98739.03;;;7.09;100.00
13734;BME280;43298;52.560;13.508;2023-12-20T02:23:12;98743.44;;;7.07;100.00
13734;BME280;43298;52.560;13.508;2023-12-20T02:25:38;98741.78;;;7.06;100.00
13734;BME280;43298;52.560;13.508;2023-12-20T02:28:05;98735.09;;;7.03;100.00
13734;BME280;43298;52.560;13.508;2023-12-20T02:30:31;98728.22;;;7.04;100.00
13734;BME280;43298;52.560;13.508;2023-12-20T02:32:57;98737.84;;;7.00;100.00
13734;BME280;43298;52.560;13.508;2023-12-20T02:35:25;98738.78;;;6.99;100.00
13734;BME280;43298;52.560;13.508;2023-12-20T02:37:51;98741.50;;;6.96;100.00
13734;BME280;43298;52.560;13.508;2023-12-20T02:40:16;98744.16;;;6.95;100.00
13734;BME280;43298;52.560;13.508;2023-12-20T02:42:42;98744.25;;;6.93;100.00
13734;BME280;43298;52.560;13.508;2023-12-20T02:45:08;98738.19;;;6.94;100.00
13734;BME280;43298;52.560;13.508;2023-12-20T02:47:34;98748.47;;;6.94;100.00
13734;BME280;43298;52.560;13.508;2023-12-20T02:50:00;98742.63;;;6.92;100.00
13734;BME280;43298;52.560;13.508;2023-12-20T02:52:27;98746.00;;;6.93;100.00
13734;BME280;43298;52.560;13.508;2023-12-20T02:54:53;98763.09;;;6.94;100.00
13734;BME280;43298;52.560;13.508;2023-12-20T02:57:19;98761.53;;;6.91;100.00
13734;BME280;43298;52.560;13.508;2023-12-20T02:59:45;98763.25;;;6.91;100.00
13734;BME280;43298;52.560;13.508;2023-12-20T03:02:10;98761.53;;;6.91;100.00
13734;BME280;43298;52.560;13.508;2023-12-20T03:04:36;98757.44;;;6.87;100.00
13734;BME280;43298;52.560;13.508;2023-12-20T03:07:02;98749.75;;;6.87;100.00
13734;BME280;43298;52.560;13.508;2023-12-20T03:09:28;98758.19;;;6.89;100.00
13734;BME280;43298;52.560;13.508;2023-12-20T03:11:53;98757.84;;;6.95;100.00
13734;BME280;43298;52.560;13.508;2023-12-20T03:14:19;98755.28;;;6.95;100.00
13734;BME280;43298;52.560;13.508;2023-12-20T03:16:51;98760.50;;;6.94;100.00
13734;BME280;43298;52.560;13.508;2023-12-20T03:19:17;98762.31;;;6.92;100.00
13734;BME280;43298;52.560;13.508;2023-12-20T03:21:44;98760.69;;;6.91;100.00
13734;BME280;43298;52.560;13.508;2023-12-20T03:24:10;98766.84;;;6.88;100.00
13734;BME280;43298;52.560;13.508;2023-12-20T03:26:35;98774.63;;;6.87;100.00
13734;BME280;43298;52.560;13.508;2023-12-20T03:29:01;98784.16;;;6.85;100.00
13734;BME280;43298;52.560;13.508;2023-12-20T03:31:27;98772.31;;;6.82;100.00
13734;BME280;43298;52.560;13.508;2023-12-20T03:33:53;98775.91;;;6.80;100.00
13734;BME280;43298;52.560;13.508;2023-12-20T03:36:20;98787.09;;;6.79;100.00
13734;BME280;43298;52.560;13.508;2023-12-20T03:38:45;98795.78;;;6.76;100.00
13734;BME280;43298;52.560;13.508;2023-12-20T03:41:11;98790.63;;;6.76;100.00
13734;BME280;43298;52.560;13.508;2023-12-20T03:43:37;98796.69;;;6.75;100.00
13734;BME280;43298;52.560;13.508;2023-12-20T03:46:03;98794.22;;;6.74;100.00
13734;BME280;43298;52.560;13.508;2023-12-20T03:48:30;98789.41;;;6.68;100.00
13734;BME280;43298;52.560;13.508;2023-12-20T03:50:57;98787.06;;;6.65;100.00
13734;BME280;43298;52.560;13.508;2023-12-20T03:53:23;98790.50;;;6.64;100.00
13734;BME280;43298;52.560;13.508;2023-12-20T03:55:48;98795.25;;;6.56;100.00
13734;BME280;43298;52.560;13.508;2023-12-20T03:58:14;98800.31;;;6.57;100.00
13734;BME280;43298;52.560;13.508;2023-12-20T04:00:40;98801.22;;;6.56;100.00
13734;BME280;43298;52.560;13.508;2023-12-20T04:03:06;98796.09;;;6.56;100.00
13734;BME280;43298;52.560;13.508;2023-12-20T04:05:32;98795.94;;;6.59;100.00
13734;BME280;43298;52.560;13.508;2023-12-20T04:08:00;98789.78;;;6.62;100.00
13734;BME280;43298;52.560;13.508;2023-12-20T04:10:26;98789.63;;;6.65;100.00
13734;BME280;43298;52.560;13.508;2023-12-20T04:12:52;98792.91;;;6.67;100.00
13734;BME280;43298;52.560;13.508;2023-12-20T04:15:18;98791.44;;;6.63;100.00
13734;BME280;43298;52.560;13.508;2023-12-20T04:17:43;98785.75;;;6.58;100.00
13734;BME280;43298;52.560;13.508;2023-12-20T04:20:10;98803.03;;;6.54;100.00
13734;BME280;43298;52.560;13.508;2023-12-20T04:22:35;98802.97;;;6.56;100.00
13734;BME280;43298;52.560;13.508;2023-12-20T04:25:01;98796.09;;;6.56;100.00
13734;BME280;43298;52.560;13.508;2023-12-20T04:27:27;98804.88;;;6.52;100.00
13734;BME280;43298;52.560;13.508;2023-12-20T04:29:53;98809.09;;;6.53;100.00
13734;BME280;43298;52.560;13.508;2023-12-20T04:32:19;98805.22;;;6.46;100.00
13734;BME280;43298;52.560;13.508;2023-12-20T04:34:45;98802.09;;;6.41;100.00
13734;BME280;43298;52.560;13.508;2023-12-20T04:37:11;98808.78;;;6.44;100.00
13734;BME280;43298;52.560;13.508;2023-12-20T04:39:37;98811.53;;;6.41;100.00
13734;BME280;43298;52.560;13.508;2023-12-20T04:42:04;98819.72;;;6.32;100.00
13734;BME280;43298;52.560;13.508;2023-12-20T04:44:30;98835.41;;;6.27;100.00
13734;BME280;43298;52.560;13.508;2023-12-20T04:46:55;98824.44;;;6.23;100.00
13734;BME280;43298;52.560;13.508;2023-12-20T04:49:22;98834.22;;;6.17;100.00
13734;BME280;43298;52.560;13.508;2023-12-20T04:51:47;98839.78;;;6.09;100.00
13734;BME280;43298;52.560;13.508;2023-12-20T04:54:13;98834.63;;;6.09;100.00
13734;BME280;43298;52.560;13.508;2023-12-20T04:56:39;98841.25;;;5.98;100.00
13734;BME280;43298;52.560;13.508;2023-12-20T04:59:05;98830.50;;;5.91;100.00
13734;BME280;43298;52.560;13.508;2023-12-20T05:01:31;98836.84;;;5.84;100.00
13734;BME280;43298;52.560;13.508;2023-12-20T05:03:57;98851.25;;;5.87;100.00
13734;BME280;43298;52.560;13.508;2023-12-20T05:06:22;98850.44;;;5.86;100.00
13734;BME280;43298;52.560;13.508;2023-12-20T05:08:48;98857.88;;;5.91;100.00
13734;BME280;43298;52.560;13.508;2023-12-20T05:11:14;98858.72;;;5.91;100.00
13734;BME280;43298;52.560;13.508;2023-12-20T05:13:41;98858.63;;;5.93;100.00
13734;BME280;43298;52.560;13.508;2023-12-20T05:16:08;98859.13;;;5.99;100.00
13734;BME280;43298;52.560;13.508;2023-12-20T05:18:35;98851.03;;;6.07;100.00
13734;BME280;43298;52.560;13.508;2023-12-20T05:21:00;98857.06;;;6.06;100.00
13734;BME280;43298;52.560;13.508;2023-12-20T05:23:27;98860.38;;;6.08;100.00
13734;BME280;43298;52.560;13.508;2023-12-20T05:25:52;98851.03;;;6.07;100.00
13734;BME280;43298;52.560;13.508;2023-12-20T05:28:18;98855.41;;;6.05;100.00
13734;BME280;43298;52.560;13.508;2023-12-20T05:30:44;98865.09;;;6.00;100.00
13734;BME280;43298;52.560;13.508;2023-12-20T05:33:10;98861.84;;;5.96;100.00
13734;BME280;43298;52.560;13.508;2023-12-20T05:35:35;98866.75;;;6.01;100.00
13734;BME280;43298;52.560;13.508;2023-12-20T05:38:01;98860.44;;;5.91;100.00
13734;BME280;43298;52.560;13.508;2023-12-20T05:40:27;98857.44;;;5.83;100.00
13734;BME280;43298;52.560;13.508;2023-12-20T05:42:54;98867.72;;;5.83;100.00
13734;BME280;43298;52.560;13.508;2023-12-20T05:45:20;98873.44;;;5.71;100.00
13734;BME280;43298;52.560;13.508;2023-12-20T05:47:45;98871.03;;;5.68;100.00
13734;BME280;43298;52.560;13.508;2023-12-20T05:50:11;98878.06;;;5.64;100.00
13734;BME280;43298;52.560;13.508;2023-12-20T05:52:37;98872.25;;;5.61;100.00
13734;BME280;43298;52.560;13.508;2023-12-20T05:55:03;98862.09;;;5.59;100.00
13734;BME280;43298;52.560;13.508;2023-12-20T05:57:29;98873.47;;;5.54;100.00
13734;BME280;43298;52.560;13.508;2023-12-20T05:59:55;98878.84;;;5.49;100.00
13734;BME280;43298;52.560;13.508;2023-12-20T06:02:21;98880.97;;;5.41;100.00
13734;BME280;43298;52.560;13.508;2023-12-20T06:04:47;98886.41;;;5.35;100.00
13734;BME280;43298;52.560;13.508;2023-12-20T06:07:13;98884.66;;;5.36;100.00
13734;BME280;43298;52.560;13.508;2023-12-20T06:09:39;98891.59;;;5.34;100.00
13734;BME280;43298;52.560;13.508;2023-12-20T06:12:07;98883.59;;;5.40;100.00
13734;BME280;43298;52.560;13.508;2023-12-20T06:14:34;98883.38;;;5.44;100.00
13734;BME280;43298;52.560;13.508;2023-12-20T06:17:00;98875.97;;;5.55;100.00
13734;BME280;43298;52.560;13.508;2023-12-20T06:19:27;98881.75;;;5.59;100.00
13734;BME280;43298;52.560;13.508;2023-12-20T06:21:53;98874.81;;;5.61;100.00
13734;BME280;43298;52.560;13.508;2023-12-20T06:24:19;98876.63;;;5.59;100.00
13734;BME280;43298;52.560;13.508;2023-12-20T06:26:45;98874.31;;;5.54;100.00
13734;BME280;43298;52.560;13.508;2023-12-20T06:29:12;98888.34;;;5.47;100.00
13734;BME280;43298;52.560;13.508;2023-12-20T06:31:38;98886.03;;;5.43;100.00
13734;BME280;43298;52.560;13.508;2023-12-20T06:34:04;98899.69;;;5.43;100.00
13734;BME280;43298;52.560;13.508;2023-12-20T06:36:29;98905.53;;;5.45;100.00
13734;BME280;43298;52.560;13.508;2023-12-20T06:38:56;98907.66;;;5.54;100.00
13734;BME280;43298;52.560;13.508;2023-12-20T06:41:21;98902.44;;;5.56;100.00
13734;BME280;43298;52.560;13.508;2023-12-20T06:43:50;98905.00;;;5.56;100.00
13734;BME280;43298;52.560;13.508;2023-12-20T06:46:17;98901.38;;;5.60;100.00
13734;BME280;43298;52.560;13.508;2023-12-20T06:48:42;98903.34;;;5.55;100.00
13734;BME280;43298;52.560;13.508;2023-12-20T06:51:14;98896.31;;;5.58;100.00
13734;BME280;43298;52.560;13.508;2023-12-20T06:53:41;98899.34;;;5.49;100.00
13734;BME280;43298;52.560;13.508;2023-12-20T06:56:06;98899.41;;;5.48;100.00
13734;BME280;43298;52.560;13.508;2023-12-20T06:58:33;98899.59;;;5.45;100.00
13734;BME280;43298;52.560;13.508;2023-12-20T07:00:58;98907.19;;;5.46;100.00
13734;BME280;43298;52.560;13.508;2023-12-20T07:03:24;98905.09;;;5.54;100.00
13734;BME280;43298;52.560;13.508;2023-12-20T07:05:50;98907.72;;;5.53;100.00
13734;BME280;43298;52.560;13.508;2023-12-20T07:08:16;98897.13;;;5.59;100.00
13734;BME280;43298;52.560;13.508;2023-12-20T07:10:41;98902.13;;;5.62;100.00
13734;BME280;43298;52.560;13.508;2023-12-20T07:13:07;98907.84;;;5.67;100.00
13734;BME280;43298;52.560;13.508;2023-12-20T07:15:33;98902.88;;;5.64;100.00
13734;BME280;43298;52.560;13.508;2023-12-20T07:17:59;98906.88;;;5.69;100.00
13734;BME280;43298;52.560;13.508;2023-12-20T07:20:26;98908.34;;;5.73;100.00
13734;BME280;43298;52.560;13.508;2023-12-20T07:22:52;98909.13;;;5.75;100.00
13734;BME280;43298;52.560;13.508;2023-12-20T07:25:18;98915.91;;;5.76;100.00
13734;BME280;43298;52.560;13.508;2023-12-20T07:27:44;98911.44;;;5.80;100.00
13734;BME280;43298;52.560;13.508;2023-12-20T07:30:10;98921.56;;;5.83;100.00
13734;BME280;43298;52.560;13.508;2023-12-20T07:32:36;98911.22;;;5.84;100.00
13734;BME280;43298;52.560;13.508;2023-12-20T07:35:02;98917.41;;;5.80;100.00
13734;BME280;43298;52.560;13.508;2023-12-20T07:37:28;98906.03;;;5.86;100.00
13734;BME280;43298;52.560;13.508;2023-12-20T07:39:54;98901.72;;;5.86;100.00
13734;BME280;43298;52.560;13.508;2023-12-20T07:42:20;98901.81;;;5.85;100.00
13734;BME280;43298;52.560;13.508;2023-12-20T07:44:47;98908.34;;;5.90;100.00
13734;BME280;43298;52.560;13.508;2023-12-20T07:47:13;98894.69;;;5.90;100.00
13734;BME280;43298;52.560;13.508;2023-12-20T07:49:42;98901.91;;;5.99;100.00
13734;BME280;43298;52.560;13.508;2023-12-20T07:52:08;98912.19;;;5.99;100.00
13734;BME280;43298;52.560;13.508;2023-12-20T07:54:34;98909.69;;;5.97;100.00
13734;BME280;43298;52.560;13.508;2023-12-20T07:57:00;98914.59;;;6.02;100.00
13734;BME280;43298;52.560;13.508;2023-12-20T07:59:26;98925.91;;;5.98;100.00
13734;BME280;43298;52.560;13.508;2023-12-20T08:01:52;98927.41;;;6.02;100.00
13734;BME280;43298;52.560;13.508;2023-12-20T08:04:17;98926.34;;;6.06;100.00
13734;BME280;43298;52.560;13.508;2023-12-20T08:06:43;98938.25;;;6.07;100.00
13734;BME280;43298;52.560;13.508;2023-12-20T08:09:09;98944.81;;;6.12;100.00
13734;BME280;43298;52.560;13.508;2023-12-20T08:11:36;98933.63;;;6.13;100.00
13734;BME280;43298;52.560;13.508;2023-12-20T08:14:01;98938.84;;;6.12;100.00
13734;BME280;43298;52.560;13.508;2023-12-20T08:16:27;98936.34;;;6.10;100.00
13734;BME280;43298;52.560;13.508;2023-12-20T08:18:53;98937.88;;;6.14;100.00
13734;BME280;43298;52.560;13.508;2023-12-20T08:21:19;98942.31;;;6.11;100.00
13734;BME280;43298;52.560;13.508;2023-12-20T08:23:47;98959.34;;;6.12;100.00
13734;BME280;43298;52.560;13.508;2023-12-20T08:26:13;98959.53;;;6.09;100.00
13734;BME280;43298;52.560;13.508;2023-12-20T08:28:39;98958.03;;;6.05;100.00
13734;BME280;43298;52.560;13.508;2023-12-20T08:31:05;98964.84;;;6.06;100.00
13734;BME280;43298;52.560;13.508;2023-12-20T08:33:30;98960.50;;;6.06;100.00
13734;BME280;43298;52.560;13.508;2023-12-20T08:35:56;98960.13;;;6.14;100.00
13734;BME280;43298;52.560;13.508;2023-12-20T08:38:22;98956.88;;;6.10;100.00
13734;BME280;43298;52.560;13.508;2023-12-20T08:40:48;98951.75;;;6.10;100.00
13734;BME280;43298;52.560;13.508;2023-12-20T08:43:14;98964.50;;;6.12;100.00
13734;BME280;43298;52.560;13.508;2023-12-20T08:45:40;98945.56;;;6.14;100.00
13734;BME280;43298;52.560;13.508;2023-12-20T08:48:06;98945.66;;;6.13;100.00
13734;BME280;43298;52.560;13.508;2023-12-20T08:50:32;98934.31;;;6.17;100.00
13734;BME280;43298;52.560;13.508;2023-12-20T08:52:58;98930.97;;;6.15;100.00
13734;BME280;43298;52.560;13.508;2023-12-20T08:55:24;98934.88;;;6.22;100.00
13734;BME280;43298;52.560;13.508;2023-12-20T08:57:50;98934.81;;;6.23;100.00
13734;BME280;43298;52.560;13.508;2023-12-20T09:00:16;98929.59;;;6.25;100.00
13734;BME280;43298;52.560;13.508;2023-12-20T09:02:42;98911.53;;;6.27;100.00
13734;BME280;43298;52.560;13.508;2023-12-20T09:05:08;98909.81;;;6.27;100.00
13734;BME280;43298;52.560;13.508;2023-12-20T09:07:34;98906.97;;;6.32;100.00
13734;BME280;43298;52.560;13.508;2023-12-20T09:10:00;98906.81;;;6.35;100.00
13734;BME280;43298;52.560;13.508;2023-12-20T09:12:26;98900.28;;;6.45;100.00
13734;BME280;43298;52.560;13.508;2023-12-20T09:14:52;98878.09;;;6.59;100.00
13734;BME280;43298;52.560;13.508;2023-12-20T09:17:18;98859.25;;;6.74;100.00
13734;BME280;43298;52.560;13.508;2023-12-20T09:19:45;98833.31;;;6.79;100.00
13734;BME280;43298;52.560;13.508;2023-12-20T09:22:12;98813.50;;;6.81;100.00
13734;BME280;43298;52.560;13.508;2023-12-20T09:24:38;98803.47;;;6.76;100.00
13734;BME280;43298;52.560;13.508;2023-12-20T09:27:05;98789.00;;;6.75;100.00
13734;BME280;43298;52.560;13.508;2023-12-20T09:29:31;98785.13;;;6.68;100.00
13734;BME280;43298;52.560;13.508;2023-12-20T09:31:59;98779.56;;;6.76;100.00
13734;BME280;43298;52.560;13.508;2023-12-20T09:34:25;98772.88;;;6.73;100.00
13734;BME280;43298;52.560;13.508;2023-12-20T09:36:52;98756.63;;;6.73;100.00
13734;BME280;43298;52.560;13.508;2023-12-20T09:39:20;98771.94;;;6.74;100.00
13734;BME280;43298;52.560;13.508;2023-12-20T09:42:02;98757.53;;;6.72;100.00
13734;BME280;43298;52.560;13.508;2023-12-20T09:44:29;98763.94;;;6.65;100.00
13734;BME280;43298;52.560;13.508;2023-12-20T09:46:57;98752.66;;;6.67;100.00
13734;BME280;43298;52.560;13.508;2023-12-20T09:49:23;98743.19;;;6.68;100.00
13734;BME280;43298;52.560;13.508;2023-12-20T09:51:51;98739.06;;;6.65;100.00
13734;BME280;43298;52.560;13.508;2023-12-20T09:54:18;98756.50;;;6.60;100.00
13734;BME280;43298;52.560;13.508;2023-12-20T09:56:47;98756.56;;;6.59;100.00
13734;BME280;43298;52.560;13.508;2023-12-20T09:59:14;98759.97;;;6.59;100.00
13734;BME280;43298;52.560;13.508;2023-12-20T10:01:40;98746.94;;;6.62;100.00
13734;BME280;43298;52.560;13.508;2023-12-20T10:04:09;98751.66;;;6.70;100.00
13734;BME280;43298;52.560;13.508;2023-12-20T10:06:44;98731.38;;;6.79;100.00
13734;BME280;43298;52.560;13.508;2023-12-20T10:09:11;98721.94;;;6.80;100.00
13734;BME280;43298;52.560;13.508;2023-12-20T10:11:40;98712.31;;;6.83;100.00
13734;BME280;43298;52.560;13.508;2023-12-20T10:14:07;98696.09;;;6.83;100.00
13734;BME280;43298;52.560;13.508;2023-12-20T10:16:34;98701.03;;;6.72;100.00
13734;BME280;43298;52.560;13.508;2023-12-20T10:19:00;98696.16;;;6.67;100.00
13734;BME280;43298;52.560;13.508;2023-12-20T10:21:30;98694.53;;;6.66;100.00
13734;BME280;43298;52.560;13.508;2023-12-20T10:23:57;98688.38;;;6.69;100.00
13734;BME280;43298;52.560;13.508;2023-12-20T10:26:25;98677.09;;;6.71;100.00
13734;BME280;43298;52.560;13.508;2023-12-20T10:29:00;98688.81;;;6.75;100.00
13734;BME280;43298;52.560;13.508;2023-12-20T10:31:33;98682.84;;;6.75;100.00
13734;BME280;43298;52.560;13.508;2023-12-20T10:34:02;98670.84;;;6.75;100.00
13734;BME280;43298;52.560;13.508;2023-12-20T10:36:34;98677.63;;;6.76;100.00
13734;BME280;43298;52.560;13.508;2023-12-20T10:39:01;98673.06;;;6.81;100.00
13734;BME280;43298;52.560;13.508;2023-12-20T10:41:31;98668.19;;;6.77;100.00
13734;BME280;43298;52.560;13.508;2023-12-20T10:44:01;98680.03;;;6.79;100.00
13734;BME280;43298;52.560;13.508;2023-12-20T10:46:28;98662.88;;;6.80;100.00
13734;BME280;43298;52.560;13.508;2023-12-20T10:48:58;98660.22;;;6.81;100.00
13734;BME280;43298;52.560;13.508;2023-12-20T10:51:25;98649.88;;;6.83;100.00
13734;BME280;43298;52.560;13.508;2023-12-20T10:53:56;98639.94;;;6.91;100.00
13734;BME280;43298;52.560;13.508;2023-12-20T10:56:22;98648.09;;;6.97;100.00
13734;BME280;43298;52.560;13.508;2023-12-20T10:58:52;98647.28;;;6.97;100.00
13734;BME280;43298;52.560;13.508;2023-12-20T11:01:19;98639.59;;;6.97;100.00
13734;BME280;43298;52.560;13.508;2023-12-20T11:03:53;98631.03;;;6.96;100.00
13734;BME280;43298;52.560;13.508;2023-12-20T11:06:59;98635.06;;;7.00;100.00
13734;BME280;43298;52.560;13.508;2023-12-20T11:09:36;98619.13;;;6.95;100.00
13734;BME280;43298;52.560;13.508;2023-12-20T11:12:49;98621.28;;;7.01;100.00
13734;BME280;43298;52.560;13.508;2023-12-20T11:15:18;98611.75;;;7.17;100.00
13734;BME280;43298;52.560;13.508;2023-12-20T11:17:55;98608.41;;;7.29;100.00
13734;BME280;43298;52.560;13.508;2023-12-20T11:20:24;98615.41;;;7.27;100.00
13734;BME280;43298;52.560;13.508;2023-12-20T11:22:54;98614.69;;;7.11;100.00
13734;BME280;43298;52.560;13.508;2023-12-20T11:25:20;98616.81;;;7.05;100.00
13734;BME280;43298;52.560;13.508;2023-12-20T11:28:07;98615.19;;;6.90;100.00
13734;BME280;43298;52.560;13.508;2023-12-20T11:30:47;98600.66;;;6.89;100.00
13734;BME280;43298;52.560;13.508;2023-12-20T11:33:15;98605.19;;;6.85;100.00
13734;BME280;43298;52.560;13.508;2023-12-20T11:35:42;98604.72;;;6.79;100.00
13734;BME280;43298;52.560;13.508;2023-12-20T11:38:09;98593.72;;;6.77;100.00
13734;BME280;43298;52.560;13.508;2023-12-20T11:40:36;98594.06;;;6.71;100.00
13734;BME280;43298;52.560;13.508;2023-12-20T11:43:03;98588.22;;;6.69;100.00
13734;BME280;43298;52.560;13.508;2023-12-20T11:45:31;98584.81;;;6.68;100.00
13734;BME280;43298;52.560;13.508;2023-12-20T11:47:57;98574.53;;;6.68;100.00
13734;BME280;43298;52.560;13.508;2023-12-20T11:50:24;98571.63;;;6.74;100.00
13734;BME280;43298;52.560;13.508;2023-12-20T11:52:52;98564.53;;;6.78;100.00
13734;BME280;43298;52.560;13.508;2023-12-20T11:55:18;98558.00;;;6.86;100.00
13734;BME280;43298;52.560;13.508;2023-12-20T11:57:44;98548.19;;;6.93;100.00
13734;BME280;43298;52.560;13.508;2023-12-20T12:00:11;98548.47;;;6.88;100.00
13734;BME280;43298;52.560;13.508;2023-12-20T12:02:37;98533.25;;;6.85;100.00
13734;BME280;43298;52.560;13.508;2023-12-20T12:05:03;98534.09;;;6.86;100.00
13734;BME280;43298;52.560;13.508;2023-12-20T12:07:31;98525.69;;;6.96;100.00
13734;BME280;43298;52.560;13.508;2023-12-20T12:09:57;98508.06;;;7.04;100.00
13734;BME280;43298;52.560;13.508;2023-12-20T12:12:24;98490.31;;;7.14;100.00
13734;BME280;43298;52.560;13.508;2023-12-20T12:14:51;98496.47;;;7.11;100.00
13734;BME280;43298;52.560;13.508;2023-12-20T12:17:16;98498.34;;;7.09;100.00
13734;BME280;43298;52.560;13.508;2023-12-20T12:19:43;98481.25;;;7.08;100.00
13734;BME280;43298;52.560;13.508;2023-12-20T12:22:12;98487.41;;;7.06;100.00
13734;BME280;43298;52.560;13.508;2023-12-20T12:24:47;98473.19;;;7.00;100.00
13734;BME280;43298;52.560;13.508;2023-12-20T12:27:13;98466.34;;;7.01;100.00
13734;BME280;43298;52.560;13.508;2023-12-20T12:29:39;98457.19;;;6.97;100.00
13734;BME280;43298;52.560;13.508;2023-12-20T12:32:07;98466.91;;;6.92;100.00
13734;BME280;43298;52.560;13.508;2023-12-20T12:34:34;98457.13;;;6.84;100.00
13734;BME280;43298;52.560;13.508;2023-12-20T12:37:00;98465.75;;;6.69;100.00
13734;BME280;43298;52.560;13.508;2023-12-20T12:39:26;98466.88;;;6.65;100.00
13734;BME280;43298;52.560;13.508;2023-12-20T12:41:53;98471.56;;;6.59;100.00
13734;BME280;43298;52.560;13.508;2023-12-20T12:44:19;98472.03;;;6.51;100.00
13734;BME280;43298;52.560;13.508;2023-12-20T12:46:46;98469.03;;;6.45;100.00
13734;BME280;43298;52.560;13.508;2023-12-20T12:49:13;98467.94;;;6.35;100.00